AAL705 EDDF-KCLT
Flight info
| Callsign | AAL705 |
|---|---|
| Flight time | N/A |
| Altitude | 34000 |
| Route | OBOKA3D/07C OBOKA Z28 DIBIR DCT BUDIP DCT RAVLO Y70 OTBED L60 BOLBI/N0483F360 L60 PENIL M144 BAGSO DCT DEVOL DCT BEXET DCT DOGAL/M084F360 DCT 54N020W 53N030W 5130N04000W 50N050W DCT ELSIR/N0483F380 N402C ALLEX DCT KAYCC DCT KYLOH DCT NELIE Q75 FARLE/N0493F400 Q75 GVE DCT AIROW CHSLY6 |
| Aircraft | B77W/H-SDE1E2E3FGHIJ2J3J4J5M1RWXY/LB1D1 |
Departure
| Time | 2026-05-07 19:07 |
|---|---|
| Airport | Frankfurt Main Airport (EDDF) |
Arrival
| Time | N/A |
|---|---|
| Airport | Charlotte Douglas International Airport (KCLT) |
| Time | Latitude | Longitude | Altitude | Speed | Heading |
|---|---|---|---|---|---|
| 2026-05-07 18:13 | 50.03147 | 8.57530 | 369 ft | 0 kts | 205° |
| 2026-05-07 18:48 | 50.03147 | 8.57531 | 361 ft | 1 kts | 205° |
| 2026-05-07 18:48 | 50.03168 | 8.57546 | 368 ft | 4 kts | 205° |
| 2026-05-07 18:49 | 50.03193 | 8.57563 | 365 ft | 4 kts | 205° |
| 2026-05-07 18:49 | 50.03212 | 8.57579 | 366 ft | 4 kts | 225° |
| 2026-05-07 18:49 | 50.03223 | 8.57611 | 368 ft | 4 kts | 276° |
| 2026-05-07 18:49 | 50.03215 | 8.57651 | 365 ft | 4 kts | 294° |
| 2026-05-07 18:50 | 50.03205 | 8.57687 | 366 ft | 4 kts | 295° |
| 2026-05-07 18:50 | 50.03193 | 8.57725 | 368 ft | 4 kts | 298° |
| 2026-05-07 18:50 | 50.03183 | 8.57754 | 368 ft | 4 kts | 302° |
| 2026-05-07 18:50 | 50.03167 | 8.57787 | 364 ft | 4 kts | 314° |
| 2026-05-07 18:51 | 50.03147 | 8.57815 | 368 ft | 4 kts | 321° |
| 2026-05-07 18:51 | 50.03134 | 8.57832 | 368 ft | 3 kts | 317° |
| 2026-05-07 18:51 | 50.03132 | 8.57835 | 368 ft | 1 kts | 317° |
| 2026-05-07 18:53 | 50.03133 | 8.57833 | 359 ft | 2 kts | 316° |
| 2026-05-07 18:53 | 50.03151 | 8.57804 | 368 ft | 4 kts | 314° |
| 2026-05-07 18:54 | 50.03175 | 8.57764 | 367 ft | 6 kts | 309° |
| 2026-05-07 18:54 | 50.03216 | 8.57649 | 363 ft | 15 kts | 295° |
| 2026-05-07 18:54 | 50.03259 | 8.57506 | 365 ft | 14 kts | 294° |
| 2026-05-07 18:54 | 50.03271 | 8.57465 | 363 ft | 3 kts | 293° |
| 2026-05-07 18:55 | 50.03279 | 8.57436 | 366 ft | 3 kts | 293° |
| 2026-05-07 18:55 | 50.03287 | 8.57405 | 362 ft | 3 kts | 294° |
| 2026-05-07 18:55 | 50.03297 | 8.57373 | 367 ft | 3 kts | 295° |
| 2026-05-07 18:55 | 50.03306 | 8.57344 | 367 ft | 2 kts | 295° |
| 2026-05-07 18:56 | 50.03307 | 8.57339 | 366 ft | 0 kts | 295° |
| 2026-05-07 18:57 | 50.03309 | 8.57332 | 365 ft | 5 kts | 295° |
| 2026-05-07 18:57 | 50.03331 | 8.57257 | 367 ft | 8 kts | 295° |
| 2026-05-07 18:57 | 50.03354 | 8.57166 | 365 ft | 12 kts | 281° |
| 2026-05-07 18:57 | 50.03330 | 8.57022 | 364 ft | 16 kts | 250° |
| 2026-05-07 18:58 | 50.03273 | 8.56781 | 362 ft | 28 kts | 250° |
| 2026-05-07 18:58 | 50.03207 | 8.56505 | 358 ft | 27 kts | 249° |
| 2026-05-07 18:58 | 50.03144 | 8.56240 | 361 ft | 27 kts | 250° |
| 2026-05-07 18:58 | 50.03080 | 8.55971 | 354 ft | 27 kts | 250° |
| 2026-05-07 18:59 | 50.03016 | 8.55702 | 357 ft | 27 kts | 249° |
| 2026-05-07 18:59 | 50.02951 | 8.55435 | 356 ft | 26 kts | 249° |
| 2026-05-07 18:59 | 50.02887 | 8.55168 | 357 ft | 26 kts | 250° |
| 2026-05-07 18:59 | 50.02834 | 8.54947 | 352 ft | 15 kts | 253° |
| 2026-05-07 19:00 | 50.02871 | 8.54805 | 344 ft | 15 kts | 316° |
| 2026-05-07 19:00 | 50.02952 | 8.54697 | 351 ft | 15 kts | 325° |
| 2026-05-07 19:00 | 50.03055 | 8.54628 | 350 ft | 16 kts | 340° |
| 2026-05-07 19:00 | 50.03162 | 8.54568 | 348 ft | 16 kts | 335° |
| 2026-05-07 19:01 | 50.03232 | 8.54438 | 350 ft | 16 kts | 277° |
| 2026-05-07 19:01 | 50.03203 | 8.54267 | 352 ft | 16 kts | 250° |
| 2026-05-07 19:01 | 50.03164 | 8.54101 | 344 ft | 16 kts | 250° |
| 2026-05-07 19:01 | 50.03125 | 8.53935 | 339 ft | 16 kts | 250° |
| 2026-05-07 19:02 | 50.03085 | 8.53769 | 338 ft | 16 kts | 249° |
| 2026-05-07 19:02 | 50.03084 | 8.53615 | 337 ft | 14 kts | 313° |
| 2026-05-07 19:02 | 50.03149 | 8.53567 | 336 ft | 4 kts | 339° |
| 2026-05-07 19:02 | 50.03150 | 8.53566 | 336 ft | 0 kts | 339° |
| 2026-05-07 19:03 | 50.03182 | 8.53547 | 337 ft | 9 kts | 339° |
| 2026-05-07 19:03 | 50.03236 | 8.53519 | 350 ft | 7 kts | 346° |
| 2026-05-07 19:04 | 50.03278 | 8.53549 | 353 ft | 7 kts | 52° |
| 2026-05-07 19:04 | 50.03290 | 8.53584 | 354 ft | 0 kts | 66° |
| 2026-05-07 19:06 | 50.03359 | 8.53864 | 352 ft | 65 kts | 70° |
| 2026-05-07 19:07 | 50.03601 | 8.54872 | 357 ft | 132 kts | 70° |
| 2026-05-07 19:07 | 50.03991 | 8.56475 | 392 ft | 178 kts | 69° |
| 2026-05-07 19:07 | 50.04423 | 8.58289 | 908 ft | 184 kts | 71° |
| 2026-05-07 19:07 | 50.04845 | 8.60194 | 1538 ft | 185 kts | 70° |
| 2026-05-07 19:08 | 50.05265 | 8.62087 | 2208 ft | 185 kts | 70° |
| 2026-05-07 19:08 | 50.05711 | 8.64079 | 2431 ft | 210 kts | 69° |
| 2026-05-07 19:08 | 50.06215 | 8.66291 | 2854 ft | 223 kts | 69° |
| 2026-05-07 19:08 | 50.06740 | 8.68610 | 3444 ft | 229 kts | 69° |
| 2026-05-07 19:09 | 50.07428 | 8.70840 | 4024 ft | 231 kts | 47° |
| 2026-05-07 19:09 | 50.08788 | 8.72227 | 4293 ft | 243 kts | 17° |
| 2026-05-07 19:09 | 50.10371 | 8.73124 | 4974 ft | 246 kts | 20° |
| 2026-05-07 19:09 | 50.11989 | 8.74172 | 5494 ft | 257 kts | 22° |
| 2026-05-07 19:10 | 50.13663 | 8.75324 | 6057 ft | 267 kts | 22° |
| 2026-05-07 19:10 | 50.15391 | 8.76516 | 6613 ft | 278 kts | 22° |
| 2026-05-07 19:10 | 50.17206 | 8.77732 | 7211 ft | 282 kts | 22° |
| 2026-05-07 19:10 | 50.18958 | 8.78916 | 8408 ft | 256 kts | 22° |
| 2026-05-07 19:11 | 50.20458 | 8.79962 | 9941 ft | 224 kts | 22° |
| 2026-05-07 19:11 | 50.21905 | 8.80976 | 10273 ft | 238 kts | 22° |
| 2026-05-07 19:11 | 50.23498 | 8.82062 | 10383 ft | 259 kts | 22° |
| 2026-05-07 19:11 | 50.25249 | 8.83005 | 10516 ft | 275 kts | 4° |
| 2026-05-07 19:12 | 50.27158 | 8.82544 | 10700 ft | 291 kts | 332° |
| 2026-05-07 19:12 | 50.28726 | 8.80420 | 10868 ft | 311 kts | 301° |
| 2026-05-07 19:12 | 50.29556 | 8.77206 | 11047 ft | 330 kts | 285° |
| 2026-05-07 19:12 | 50.30202 | 8.73629 | 11241 ft | 353 kts | 286° |
| 2026-05-07 19:13 | 50.30945 | 8.69889 | 11780 ft | 366 kts | 288° |
| 2026-05-07 19:13 | 50.31757 | 8.66068 | 12566 ft | 372 kts | 288° |
| 2026-05-07 19:13 | 50.32593 | 8.62220 | 13110 ft | 376 kts | 288° |
| 2026-05-07 19:13 | 50.33444 | 8.58324 | 13085 ft | 379 kts | 289° |
| 2026-05-07 19:14 | 50.34296 | 8.54417 | 13093 ft | 379 kts | 288° |
| 2026-05-07 19:14 | 50.35150 | 8.50490 | 13552 ft | 384 kts | 288° |
| 2026-05-07 19:14 | 50.36012 | 8.46522 | 14481 ft | 385 kts | 288° |
| 2026-05-07 19:14 | 50.36862 | 8.42597 | 15401 ft | 387 kts | 288° |
| 2026-05-07 19:15 | 50.37663 | 8.38581 | 16156 ft | 387 kts | 281° |
| 2026-05-07 19:15 | 50.37732 | 8.34344 | 16754 ft | 396 kts | 260° |
| 2026-05-07 19:15 | 50.36969 | 8.30194 | 17463 ft | 399 kts | 252° |
| 2026-05-07 19:15 | 50.36093 | 8.26040 | 18196 ft | 405 kts | 252° |
| 2026-05-07 19:16 | 50.35226 | 8.21819 | 18964 ft | 407 kts | 252° |
| 2026-05-07 19:16 | 50.34368 | 8.17585 | 19759 ft | 409 kts | 253° |
| 2026-05-07 19:16 | 50.33510 | 8.13329 | 20473 ft | 412 kts | 253° |
| 2026-05-07 19:16 | 50.32643 | 8.09020 | 21158 ft | 417 kts | 253° |
| 2026-05-07 19:17 | 50.31769 | 8.04673 | 21831 ft | 421 kts | 252° |
| 2026-05-07 19:17 | 50.30885 | 8.00291 | 22514 ft | 425 kts | 252° |
| 2026-05-07 19:17 | 50.30003 | 7.95861 | 23185 ft | 425 kts | 255° |
| 2026-05-07 19:17 | 50.29656 | 7.91264 | 23569 ft | 432 kts | 273° |
| 2026-05-07 19:18 | 50.30226 | 7.86634 | 24018 ft | 436 kts | 288° |
| 2026-05-07 19:18 | 50.31495 | 7.82301 | 24053 ft | 441 kts | 299° |
| 2026-05-07 19:18 | 50.33265 | 7.78382 | 24083 ft | 442 kts | 308° |
| 2026-05-07 19:18 | 50.35379 | 7.74901 | 24073 ft | 442 kts | 316° |
| 2026-05-07 19:19 | 50.37854 | 7.71995 | 24363 ft | 447 kts | 325° |
| 2026-05-07 19:19 | 50.40472 | 7.69343 | 24955 ft | 449 kts | 325° |
| 2026-05-07 19:19 | 50.43067 | 7.66716 | 25526 ft | 451 kts | 325° |
| 2026-05-07 19:19 | 50.45709 | 7.64017 | 26054 ft | 455 kts | 325° |
| 2026-05-07 19:20 | 50.48367 | 7.61275 | 26065 ft | 460 kts | 325° |
| 2026-05-07 19:20 | 50.51030 | 7.58506 | 26074 ft | 457 kts | 324° |
| 2026-05-07 19:20 | 50.53669 | 7.55747 | 26064 ft | 454 kts | 324° |
| 2026-05-07 19:20 | 50.56296 | 7.52992 | 26070 ft | 454 kts | 324° |
| 2026-05-07 19:21 | 50.58925 | 7.50230 | 26076 ft | 455 kts | 324° |
| 2026-05-07 19:21 | 50.61556 | 7.47462 | 26074 ft | 455 kts | 324° |
| 2026-05-07 19:21 | 50.64189 | 7.44690 | 26086 ft | 456 kts | 324° |
| 2026-05-07 19:21 | 50.66829 | 7.41909 | 26082 ft | 456 kts | 324° |
| 2026-05-07 19:22 | 50.69468 | 7.39124 | 26077 ft | 457 kts | 324° |
| 2026-05-07 19:22 | 50.72061 | 7.36228 | 26101 ft | 457 kts | 319° |
| 2026-05-07 19:22 | 50.74420 | 7.32857 | 26581 ft | 459 kts | 313° |
| 2026-05-07 19:22 | 50.76582 | 7.29153 | 27162 ft | 459 kts | 308° |
| 2026-05-07 19:23 | 50.78491 | 7.25120 | 27688 ft | 459 kts | 304° |
| 2026-05-07 19:23 | 50.80316 | 7.20950 | 28120 ft | 463 kts | 303° |
| 2026-05-07 19:23 | 50.82147 | 7.16740 | 28532 ft | 467 kts | 303° |
| 2026-05-07 19:23 | 50.84001 | 7.12504 | 28963 ft | 470 kts | 303° |
| 2026-05-07 19:24 | 50.85876 | 7.08255 | 29368 ft | 472 kts | 304° |
| 2026-05-07 19:24 | 50.87769 | 7.03988 | 29774 ft | 474 kts | 303° |
| 2026-05-07 19:24 | 50.89666 | 6.99707 | 30134 ft | 476 kts | 303° |
| 2026-05-07 19:24 | 50.91569 | 6.95411 | 30499 ft | 477 kts | 303° |
| 2026-05-07 19:25 | 50.93475 | 6.91115 | 30915 ft | 475 kts | 303° |
| 2026-05-07 19:25 | 50.95374 | 6.86831 | 31348 ft | 474 kts | 303° |
| 2026-05-07 19:25 | 50.97264 | 6.82558 | 31763 ft | 473 kts | 303° |
| 2026-05-07 19:25 | 50.99151 | 6.78285 | 32142 ft | 473 kts | 303° |
| 2026-05-07 19:26 | 51.01009 | 6.74067 | 32518 ft | 472 kts | 303° |
| 2026-05-07 19:26 | 51.02890 | 6.69789 | 32911 ft | 471 kts | 303° |
| 2026-05-07 19:26 | 51.04762 | 6.65524 | 33279 ft | 471 kts | 303° |
| 2026-05-07 19:26 | 51.06632 | 6.61261 | 33680 ft | 469 kts | 303° |
| 2026-05-07 19:27 | 51.08492 | 6.57013 | 34093 ft | 468 kts | 303° |
| 2026-05-07 19:27 | 51.10353 | 6.52743 | 34058 ft | 472 kts | 303° |
| 2026-05-07 19:27 | 51.14072 | 6.44147 | 34069 ft | 469 kts | 303° |
| 2026-05-07 19:28 | 51.17751 | 6.35611 | 34079 ft | 468 kts | 302° |
| 2026-05-07 19:28 | 51.21436 | 6.27037 | 34080 ft | 469 kts | 302° |
| 2026-05-07 19:29 | 51.25128 | 6.18424 | 34092 ft | 471 kts | 302° |
| 2026-05-07 19:29 | 51.28808 | 6.09771 | 34074 ft | 471 kts | 302° |
| 2026-05-07 19:30 | 51.32376 | 6.01004 | 34071 ft | 470 kts | 301° |
| 2026-05-07 19:30 | 51.35930 | 5.92247 | 34076 ft | 469 kts | 301° |
| 2026-05-07 19:31 | 51.39858 | 5.83897 | 34068 ft | 471 kts | 311° |
| 2026-05-07 19:31 | 51.44396 | 5.76324 | 34077 ft | 471 kts | 312° |
| 2026-05-07 19:32 | 51.48918 | 5.68796 | 34080 ft | 472 kts | 311° |
| 2026-05-07 19:32 | 51.53449 | 5.61168 | 34081 ft | 472 kts | 311° |
| 2026-05-07 19:33 | 51.57967 | 5.53498 | 34081 ft | 473 kts | 311° |
| 2026-05-07 19:33 | 51.62482 | 5.45800 | 34079 ft | 473 kts | 311° |
| 2026-05-07 19:34 | 51.66996 | 5.38081 | 34079 ft | 473 kts | 311° |
| 2026-05-07 19:34 | 51.71505 | 5.30348 | 34095 ft | 474 kts | 311° |
| 2026-05-07 19:35 | 51.76017 | 5.22586 | 34082 ft | 474 kts | 311° |
| 2026-05-07 19:35 | 51.80524 | 5.14809 | 34077 ft | 474 kts | 311° |
| 2026-05-07 19:36 | 51.85025 | 5.07019 | 34079 ft | 474 kts | 311° |
| 2026-05-07 19:36 | 51.89515 | 4.99222 | 34078 ft | 473 kts | 311° |
| 2026-05-07 19:37 | 51.94000 | 4.91408 | 34076 ft | 473 kts | 311° |
| 2026-05-07 19:37 | 51.98451 | 4.83631 | 34083 ft | 474 kts | 310° |
| 2026-05-07 19:38 | 52.02925 | 4.75788 | 34084 ft | 474 kts | 310° |
| 2026-05-07 19:38 | 52.07398 | 4.67923 | 34068 ft | 474 kts | 310° |
| 2026-05-07 19:39 | 52.11538 | 4.60620 | 34084 ft | 473 kts | 310° |
| 2026-05-07 19:39 | 52.15997 | 4.52730 | 34086 ft | 473 kts | 310° |
| 2026-05-07 19:40 | 52.20452 | 4.44823 | 34091 ft | 474 kts | 310° |
| 2026-05-07 19:40 | 52.24907 | 4.36891 | 34091 ft | 475 kts | 310° |
| 2026-05-07 19:41 | 52.29367 | 4.28923 | 34083 ft | 476 kts | 310° |
| 2026-05-07 19:41 | 52.33829 | 4.20927 | 34083 ft | 476 kts | 310° |
| 2026-05-07 19:42 | 52.38292 | 4.12902 | 34089 ft | 477 kts | 310° |
| 2026-05-07 19:42 | 52.42722 | 4.04913 | 34091 ft | 477 kts | 310° |
| 2026-05-07 19:43 | 52.47177 | 3.96850 | 34106 ft | 477 kts | 310° |
| 2026-05-07 19:43 | 52.51636 | 3.88754 | 34107 ft | 479 kts | 310° |
| 2026-05-07 19:44 | 52.56103 | 3.80618 | 34100 ft | 480 kts | 310° |
| 2026-05-07 19:44 | 52.60575 | 3.72446 | 34105 ft | 481 kts | 310° |
| 2026-05-07 19:45 | 52.65045 | 3.64249 | 34107 ft | 481 kts | 310° |
| 2026-05-07 19:45 | 52.69511 | 3.56035 | 34109 ft | 481 kts | 310° |
| 2026-05-07 19:46 | 52.73970 | 3.47803 | 34114 ft | 482 kts | 310° |
| 2026-05-07 19:46 | 52.78434 | 3.39536 | 34111 ft | 483 kts | 310° |
| 2026-05-07 19:47 | 52.82902 | 3.31234 | 34113 ft | 484 kts | 310° |
| 2026-05-07 19:47 | 52.87341 | 3.22959 | 34110 ft | 484 kts | 310° |
| 2026-05-07 19:48 | 52.91192 | 3.13908 | 34105 ft | 480 kts | 294° |
| 2026-05-07 19:48 | 52.93331 | 3.03506 | 34121 ft | 477 kts | 281° |
| 2026-05-07 19:49 | 52.94669 | 2.92727 | 34116 ft | 477 kts | 280° |
| 2026-05-07 19:49 | 52.96019 | 2.81947 | 34105 ft | 478 kts | 281° |
| 2026-05-07 19:50 | 52.97403 | 2.71181 | 34108 ft | 477 kts | 281° |
| 2026-05-07 19:50 | 52.98794 | 2.60388 | 34106 ft | 479 kts | 281° |
| 2026-05-07 19:51 | 52.99948 | 2.51369 | 34121 ft | 482 kts | 280° |
| 2026-05-07 19:51 | 53.01559 | 2.38664 | 34114 ft | 485 kts | 280° |
| 2026-05-07 19:52 | 53.02940 | 2.27676 | 34110 ft | 486 kts | 280° |
| 2026-05-07 19:52 | 53.04091 | 2.18452 | 34103 ft | 486 kts | 280° |
| 2026-05-07 19:53 | 53.05453 | 2.07464 | 34104 ft | 485 kts | 280° |
| 2026-05-07 19:53 | 53.06805 | 1.96479 | 34111 ft | 483 kts | 280° |